Overview Statistics Trail Chart Weather Telemetry Raw packets
 

This is the latest recevied weather packets stored in our database for station/object IU2RPR-3. If no packets are shown the sender has not sent any weather packets the latest 10 day(s).

<< 25 26 27 28 29 >>
Time Temp. Humidity Pressure Rain* Wind** Luminosity Snow
1787758842 28.33° C 56% 1014.7 hPa - - - -
1787757641 28.89° C 53% 1014.4 hPa - - - -
1787756460 28.89° C 54% 1014.4 hPa - - - -
1787755226 28.33° C 55% 1015 hPa - - - -
1787754022 28.33° C 54% 1015.1 hPa - - - -
1787752815 31.11° C 50% 1014.9 hPa - - - -
1787751608 30.56° C 51% 1015.2 hPa - - - -
1787750439 29.44° C 51% 1015.3 hPa - - - -
1787749198 28.89° C 53% 1015.3 hPa - - - -
1787747996 30° C 51% 1015.3 hPa - - - -
1787746790 28.89° C 53% 1015.5 hPa - - - -
1787745586 27.78° C 56% 1016.2 hPa - - - -
1787744383 27.78° C 57% 1016.3 hPa - - - -
1787743180 27.22° C 58% 1016.2 hPa - - - -
1787741978 27.22° C 58% 1016.3 hPa - - - -
1787740845 26.67° C 60% 1016.5 hPa - - - -
1787739566 26.11° C 62% 1016.5 hPa - - - -
1787738362 25.56° C 62% 1016.6 hPa - - - -
1787737161 24.44° C 65% 1016.8 hPa - - - -
1787735959 25° C 64% 1016.9 hPa - - - -
1787734750 23.89° C 68% 1016.9 hPa - - - -
1787733559 23.89° C 68% 1016.9 hPa - - - -
1787732378 23.33° C 69% 1016.9 hPa - - - -
1787731147 22.78° C 70% 1016.9 hPa - - - -
1787729928 22.78° C 72% 1016.7 hPa - - - -

* Rain since midnight (hover to see other rain measurements)
** Current wind speed in m/s (hover to see current wind gust speed)